Time;durP1;ratioP1;P1;durP2;ratioP2;P2;SDS_P1;SDS_P2;PMS_P1;PMS_P2;Temp;Humidity;BMP_temperature;BMP_pressure;BME280_temperature;BME280_humidity;BME280_pressure;Samples;Min_cycle;Max_cycle;Signal;HPM_P1;HPM_P2
2021/04/08 00:00:08;;;;;;;7.50;3.70;;;;;;;;;;5052000;28;32475;-70
2021/04/08 00:02:34;;;;;;;8.18;3.67;;;;;;;;;;5051209;28;32153;-70
2021/04/08 00:04:59;;;;;;;10.00;4.28;;;;;;;;;;5051794;28;32907;-70
2021/04/08 00:07:25;;;;;;;10.48;4.18;;;;;;;;;;5054993;28;31703;-71
2021/04/08 00:09:51;;;;;;;7.50;3.50;;;;;;;;;;5053696;28;32423;-70
2021/04/08 00:12:16;;;;;;;7.97;4.35;;;;;;;;;;5054171;28;34667;-70
2021/04/08 00:14:42;;;;;;;9.20;4.10;;;;;;;;;;5050738;28;30416;-70
2021/04/08 00:17:08;;;;;;;9.52;3.72;;;;;;;;;;5051629;28;33037;-71
2021/04/08 00:19:33;;;;;;;12.07;3.45;;;;;;;;;;5050310;28;32363;-70
2021/04/08 00:21:59;;;;;;;10.93;3.55;;;;;;;;;;5051965;28;32453;-71
2021/04/08 00:24:24;;;;;;;12.32;3.95;;;;;;;;;;5050960;28;32897;-71
2021/04/08 00:26:50;;;;;;;8.82;4.75;;;;;;;;;;5052598;28;31528;-70
2021/04/08 00:29:16;;;;;;;8.32;3.30;;;;;;;;;;5052458;28;32114;-71
2021/04/08 00:31:42;;;;;;;8.02;3.08;;;;;;;;;;5052317;28;32249;-71
2021/04/08 00:34:07;;;;;;;10.32;3.17;;;;;;;;;;5052118;28;30809;-70
2021/04/08 00:36:33;;;;;;;10.40;3.55;;;;;;;;;;5053393;28;33032;-71
2021/04/08 00:38:59;;;;;;;9.18;3.50;;;;;;;;;;5052101;28;32255;-70
2021/04/08 00:41:24;;;;;;;15.40;3.83;;;;;;;;;;5052331;28;32408;-70
2021/04/08 00:43:50;;;;;;;9.73;3.08;;;;;;;;;;5051505;28;31945;-70
2021/04/08 00:46:16;;;;;;;10.73;3.65;;;;;;;;;;5051522;28;32584;-71
2021/04/08 00:48:41;;;;;;;12.13;3.65;;;;;;;;;;5052212;28;32544;-70
2021/04/08 00:51:08;;;;;;;7.75;3.20;;;;;;;;;;5050436;28;31967;-70
2021/04/08 00:53:34;;;;;;;10.35;3.50;;;;;;;;;;5049586;28;31334;-71
2021/04/08 00:56:01;;;;;;;8.32;3.33;;;;;;;;;;5050160;28;31799;-70
2021/04/08 00:58:29;;;;;;;7.90;3.30;;;;;;;;;;5050487;28;32780;-70
2021/04/08 01:00:55;;;;;;;9.60;3.40;;;;;;;;;;5048418;28;30698;-70
2021/04/08 01:03:22;;;;;;;8.93;3.15;;;;;;;;;;5051467;28;32207;-70
2021/04/08 01:05:48;;;;;;;11.25;3.28;;;;;;;;;;5051953;28;31151;-70
2021/04/08 01:08:14;;;;;;;10.98;3.00;;;;;;;;;;5051105;28;32437;-70
2021/04/08 01:10:40;;;;;;;11.05;3.28;;;;;;;;;;5051512;28;33956;-70
2021/04/08 01:13:07;;;;;;;8.00;3.08;;;;;;;;;;5051693;28;31917;-70
2021/04/08 01:15:33;;;;;;;6.75;3.40;;;;;;;;;;5052405;28;32099;-70
2021/04/08 01:18:18;;;;;;;11.57;3.63;;;;;;;;;;5051156;28;32775;-71
2021/04/08 01:20:50;;;;;;;13.93;4.00;;;;;;;;;;5051064;28;33264;-70
2021/04/08 01:23:28;;;;;;;8.00;3.88;;;;;;;;;;5051626;28;32966;-70
2021/04/08 01:26:12;;;;;;;5.80;3.15;;;;;;;;;;5055938;28;33016;-70
2021/04/08 01:28:42;;;;;;;7.22;3.35;;;;;;;;;;5055011;28;32711;-71
2021/04/08 01:31:12;;;;;;;6.78;3.50;;;;;;;;;;5054765;28;32351;-71
2021/04/08 01:33:45;;;;;;;5.78;3.15;;;;;;;;;;5054832;28;31971;-71
2021/04/08 01:36:17;;;;;;;8.02;4.45;;;;;;;;;;5054981;28;32076;-70
2021/04/08 01:39:09;;;;;;;13.25;3.42;;;;;;;;;;5053973;28;33226;-70
2021/04/08 01:41:38;;;;;;;5.90;3.10;;;;;;;;;;5053366;28;31270;-70
2021/04/08 01:44:05;;;;;;;6.95;3.55;;;;;;;;;;5054683;28;31599;-70
2021/04/08 01:46:34;;;;;;;7.35;2.92;;;;;;;;;;5055068;28;31481;-70
2021/04/08 01:49:00;;;;;;;7.13;3.70;;;;;;;;;;5054240;28;32169;-69
2021/04/08 01:51:26;;;;;;;12.15;4.10;;;;;;;;;;5055371;28;31615;-70
2021/04/08 01:53:57;;;;;;;7.75;3.42;;;;;;;;;;5053407;28;31893;-70
2021/04/08 01:56:26;;;;;;;7.20;3.20;;;;;;;;;;5057164;28;33118;-70
2021/04/08 01:58:52;;;;;;;7.60;3.50;;;;;;;;;;5055312;28;37588;-70
2021/04/08 02:01:18;;;;;;;10.52;3.22;;;;;;;;;;5056137;28;32302;-71
2021/04/08 02:03:45;;;;;;;8.73;3.20;;;;;;;;;;5054895;28;31745;-70
2021/04/08 02:06:12;;;;;;;9.38;3.72;;;;;;;;;;5052995;28;33050;-70
2021/04/08 02:08:39;;;;;;;11.23;3.83;;;;;;;;;;5053316;28;33192;-70
2021/04/08 02:11:05;;;;;;;6.32;3.17;;;;;;;;;;5053994;28;33020;-69
2021/04/08 02:13:31;;;;;;;9.45;4.18;;;;;;;;;;5054269;28;32746;-69
2021/04/08 02:16:00;;;;;;;7.45;3.25;;;;;;;;;;5037501;28;30991;-70
2021/04/08 02:18:26;;;;;;;9.30;3.15;;;;;;;;;;5053795;28;33656;-70
2021/04/08 02:20:52;;;;;;;5.90;3.30;;;;;;;;;;5053668;28;31992;-70
2021/04/08 02:23:23;;;;;;;7.05;3.03;;;;;;;;;;5053174;28;32904;-70
2021/04/08 02:25:49;;;;;;;12.10;3.13;;;;;;;;;;5054902;28;32001;-70
2021/04/08 02:28:16;;;;;;;7.57;4.05;;;;;;;;;;5055085;28;32634;-70
2021/04/08 02:30:46;;;;;;;10.40;3.60;;;;;;;;;;5055083;28;31844;-70
2021/04/08 02:33:14;;;;;;;9.80;3.00;;;;;;;;;;5053460;28;31983;-70
2021/04/08 02:35:40;;;;;;;9.05;2.85;;;;;;;;;;5053150;28;30291;-70
2021/04/08 02:38:05;;;;;;;8.57;3.22;;;;;;;;;;5052620;28;31813;-71
2021/04/08 02:40:31;;;;;;;13.90;3.63;;;;;;;;;;5054506;28;32328;-70
2021/04/08 02:42:57;;;;;;;9.43;3.42;;;;;;;;;;5053716;28;33168;-70
2021/04/08 02:45:22;;;;;;;11.13;3.83;;;;;;;;;;5052456;28;31472;-71
2021/04/08 02:47:48;;;;;;;7.70;3.65;;;;;;;;;;5054157;28;33201;-71
2021/04/08 02:50:14;;;;;;;6.57;3.65;;;;;;;;;;5052475;28;32069;-71
2021/04/08 02:52:45;;;;;;;12.23;4.20;;;;;;;;;;5053580;28;32806;-71
2021/04/08 02:55:15;;;;;;;7.75;3.13;;;;;;;;;;5052859;28;31063;-70
2021/04/08 02:57:47;;;;;;;11.52;3.85;;;;;;;;;;5053201;28;33392;-70
2021/04/08 03:00:15;;;;;;;6.88;3.22;;;;;;;;;;5052652;28;33188;-70
2021/04/08 03:02:42;;;;;;;6.18;3.45;;;;;;;;;;5053541;28;31666;-70
2021/04/08 03:05:08;;;;;;;9.40;3.45;;;;;;;;;;5052493;28;31684;-70
2021/04/08 03:07:39;;;;;;;13.02;3.75;;;;;;;;;;5052572;28;31736;-70
2021/04/08 03:10:07;;;;;;;9.07;3.67;;;;;;;;;;5053932;28;33703;-71
2021/04/08 03:12:33;;;;;;;9.43;4.10;;;;;;;;;;5053983;28;31147;-70
2021/04/08 03:15:01;;;;;;;12.23;4.78;;;;;;;;;;5051839;28;30600;-71
2021/04/08 03:17:28;;;;;;;12.10;4.07;;;;;;;;;;5051696;28;31026;-70
2021/04/08 03:19:56;;;;;;;9.75;3.85;;;;;;;;;;5051972;28;31255;-70
2021/04/08 03:22:23;;;;;;;8.95;3.58;;;;;;;;;;5052369;28;31883;-70
2021/04/08 03:24:49;;;;;;;9.98;4.38;;;;;;;;;;5054331;28;33148;-70
2021/04/08 03:27:15;;;;;;;8.45;3.90;;;;;;;;;;5052960;28;33612;-70
2021/04/08 03:29:41;;;;;;;9.82;3.45;;;;;;;;;;5053264;28;33222;-70
2021/04/08 03:32:09;;;;;;;6.25;3.83;;;;;;;;;;5052819;28;32866;-70
2021/04/08 03:34:39;;;;;;;8.68;3.63;;;;;;;;;;5053357;28;32076;-70
2021/04/08 03:37:05;;;;;;;10.27;4.03;;;;;;;;;;5053305;28;32664;-70
2021/04/08 03:39:30;;;;;;;9.10;4.28;;;;;;;;;;5052083;28;33217;-69
2021/04/08 03:41:57;;;;;;;7.63;3.42;;;;;;;;;;5051192;28;31646;-70
2021/04/08 03:44:23;;;;;;;6.95;3.55;;;;;;;;;;5049784;28;32642;-70
2021/04/08 03:46:49;;;;;;;8.73;3.80;;;;;;;;;;5050002;28;33516;-69
2021/04/08 03:49:17;;;;;;;10.98;3.63;;;;;;;;;;5050361;28;31915;-70
2021/04/08 03:51:44;;;;;;;9.90;4.03;;;;;;;;;;5051551;28;31887;-70
2021/04/08 03:54:11;;;;;;;18.20;4.28;;;;;;;;;;5051153;28;32621;-70
2021/04/08 03:56:39;;;;;;;9.63;3.72;;;;;;;;;;5051935;28;33146;-69
2021/04/08 03:59:05;;;;;;;8.60;3.92;;;;;;;;;;5051949;28;32278;-70
2021/04/08 04:01:32;;;;;;;10.23;3.97;;;;;;;;;;5052282;28;32602;-69
2021/04/08 04:03:59;;;;;;;13.23;3.92;;;;;;;;;;5052666;28;33099;-69
2021/04/08 04:06:27;;;;;;;13.68;4.32;;;;;;;;;;5052153;28;32410;-70
2021/04/08 04:08:53;;;;;;;9.02;3.80;;;;;;;;;;5052648;28;33695;-70
2021/04/08 04:11:19;;;;;;;13.82;4.07;;;;;;;;;;5053289;28;31586;-70
2021/04/08 04:13:46;;;;;;;10.38;3.83;;;;;;;;;;5052282;28;32074;-70
2021/04/08 04:16:13;;;;;;;7.60;3.92;;;;;;;;;;5048566;28;32690;-70
2021/04/08 04:18:39;;;;;;;11.18;4.47;;;;;;;;;;5051752;28;32842;-70
2021/04/08 04:21:05;;;;;;;12.70;4.78;;;;;;;;;;5048959;28;31512;-70
2021/04/08 04:23:31;;;;;;;12.52;4.53;;;;;;;;;;5050833;28;31645;-70
2021/04/08 04:25:56;;;;;;;8.73;4.30;;;;;;;;;;5050703;28;31377;-70
2021/04/08 04:28:22;;;;;;;12.07;3.90;;;;;;;;;;5050551;28;30836;-70
2021/04/08 04:30:48;;;;;;;8.65;3.88;;;;;;;;;;5051771;28;32569;-70
2021/04/08 04:33:14;;;;;;;11.32;4.72;;;;;;;;;;5051976;28;32037;-69
2021/04/08 04:35:40;;;;;;;12.98;4.53;;;;;;;;;;5052555;28;33814;-69
2021/04/08 04:38:06;;;;;;;9.88;4.10;;;;;;;;;;5052312;28;32313;-69
2021/04/08 04:40:31;;;;;;;15.32;4.43;;;;;;;;;;5052420;28;31734;-70
2021/04/08 04:42:57;;;;;;;12.40;4.32;;;;;;;;;;5052306;28;32186;-69
2021/04/08 04:45:22;;;;;;;9.00;3.53;;;;;;;;;;5052245;28;31518;-70
2021/04/08 04:47:48;;;;;;;7.03;3.60;;;;;;;;;;5051420;28;33233;-70
2021/04/08 04:50:14;;;;;;;12.00;4.28;;;;;;;;;;5047630;28;33461;-69
2021/04/08 04:52:40;;;;;;;10.93;4.18;;;;;;;;;;5050044;28;31748;-70
2021/04/08 04:55:07;;;;;;;11.35;4.75;;;;;;;;;;5050584;28;33565;-70
2021/04/08 04:57:32;;;;;;;8.35;4.35;;;;;;;;;;5050736;28;32206;-70
2021/04/08 04:59:58;;;;;;;9.38;3.95;;;;;;;;;;5051348;28;31951;-70
2021/04/08 05:02:24;;;;;;;12.30;4.35;;;;;;;;;;5051583;28;32720;-70
2021/04/08 05:04:49;;;;;;;7.72;3.78;;;;;;;;;;5052961;28;32429;-70
2021/04/08 05:07:15;;;;;;;16.85;5.90;;;;;;;;;;5049385;28;32320;-70
2021/04/08 05:09:41;;;;;;;15.38;5.38;;;;;;;;;;5050522;28;31960;-70
2021/04/08 05:12:07;;;;;;;10.57;4.55;;;;;;;;;;5051277;28;31182;-70
2021/04/08 05:14:33;;;;;;;13.35;4.85;;;;;;;;;;5051948;28;32138;-70
2021/04/08 05:16:59;;;;;;;12.05;4.88;;;;;;;;;;5052094;28;32204;-70
2021/04/08 05:19:25;;;;;;;9.90;4.13;;;;;;;;;;5056976;28;32575;-70
2021/04/08 05:21:51;;;;;;;10.73;4.40;;;;;;;;;;5055009;28;32011;-70
2021/04/08 05:24:17;;;;;;;11.43;4.28;;;;;;;;;;5050633;28;32458;-70
2021/04/08 05:26:44;;;;;;;12.05;4.70;;;;;;;;;;5059188;28;32120;-70
2021/04/08 05:29:10;;;;;;;11.05;4.97;;;;;;;;;;5056609;28;31736;-71
2021/04/08 05:31:35;;;;;;;16.48;6.10;;;;;;;;;;5051255;28;32722;-70
2021/04/08 05:34:01;;;;;;;21.15;7.65;;;;;;;;;;5050010;28;32593;-70
2021/04/08 05:36:27;;;;;;;28.13;9.85;;;;;;;;;;5051394;28;32328;-71
2021/04/08 05:38:53;;;;;;;23.88;8.30;;;;;;;;;;5050716;28;32820;-70
2021/04/08 05:41:18;;;;;;;19.55;8.25;;;;;;;;;;5051182;28;31912;-70
2021/04/08 05:43:44;;;;;;;27.55;10.05;;;;;;;;;;5050362;28;32238;-70
2021/04/08 05:46:10;;;;;;;32.63;11.43;;;;;;;;;;5050167;28;32259;-70
2021/04/08 05:48:36;;;;;;;47.55;16.52;;;;;;;;;;5051243;28;31588;-70
2021/04/08 05:51:03;;;;;;;34.13;13.00;;;;;;;;;;5050532;28;32489;-70
2021/04/08 05:53:28;;;;;;;23.73;9.00;;;;;;;;;;5051016;28;32628;-70
2021/04/08 05:55:54;;;;;;;27.63;9.25;;;;;;;;;;5051303;28;32211;-70
2021/04/08 05:58:20;;;;;;;13.38;6.75;;;;;;;;;;5051410;28;32852;-70
2021/04/08 06:00:46;;;;;;;15.77;6.55;;;;;;;;;;5049113;28;31897;-70
2021/04/08 06:03:11;;;;;;;13.45;6.50;;;;;;;;;;5048099;28;31116;-70
2021/04/08 06:05:37;;;;;;;13.57;5.03;;;;;;;;;;5048154;28;32216;-70
2021/04/08 06:08:03;;;;;;;19.92;6.13;;;;;;;;;;5048908;28;32854;-70
2021/04/08 06:10:28;;;;;;;9.70;5.72;;;;;;;;;;5053492;28;33056;-71
2021/04/08 06:12:54;;;;;;;8.82;4.80;;;;;;;;;;5053892;28;32396;-70
2021/04/08 06:15:21;;;;;;;9.70;4.60;;;;;;;;;;5052898;28;32424;-71
2021/04/08 06:17:46;;;;;;;13.80;4.85;;;;;;;;;;5053307;28;31876;-70
2021/04/08 06:20:12;;;;;;;12.73;4.72;;;;;;;;;;5052234;28;32018;-71
2021/04/08 06:22:38;;;;;;;8.82;4.18;;;;;;;;;;5052618;28;32504;-71
2021/04/08 06:25:04;;;;;;;17.48;5.15;;;;;;;;;;5054017;28;32399;-70
2021/04/08 06:27:33;;;;;;;10.02;4.45;;;;;;;;;;5053251;28;32093;-71
2021/04/08 06:29:59;;;;;;;18.70;5.05;;;;;;;;;;5053637;28;30821;-71
2021/04/08 06:32:24;;;;;;;8.07;4.82;;;;;;;;;;5055286;28;33593;-70
2021/04/08 06:34:50;;;;;;;14.60;4.80;;;;;;;;;;5058014;28;32400;-70
2021/04/08 06:37:16;;;;;;;9.07;4.05;;;;;;;;;;5058708;28;31762;-71
2021/04/08 06:39:41;;;;;;;10.60;4.97;;;;;;;;;;5054714;28;33171;-70
2021/04/08 06:42:08;;;;;;;14.63;4.22;;;;;;;;;;5054194;28;32416;-70
2021/04/08 06:44:34;;;;;;;11.50;4.78;;;;;;;;;;5054161;28;32481;-70
2021/04/08 06:47:04;;;;;;;11.98;4.93;;;;;;;;;;5046254;28;32418;-70
2021/04/08 06:49:33;;;;;;;9.77;5.07;;;;;;;;;;5052215;28;31526;-71
2021/04/08 06:51:59;;;;;;;13.57;5.45;;;;;;;;;;5053739;28;32277;-71
2021/04/08 06:54:26;;;;;;;15.20;5.25;;;;;;;;;;5054662;28;32088;-68
2021/04/08 06:56:52;;;;;;;11.00;4.65;;;;;;;;;;5055011;28;32785;-69
2021/04/08 06:59:17;;;;;;;10.70;5.00;;;;;;;;;;5053478;28;38696;-69
2021/04/08 07:01:44;;;;;;;13.27;5.80;;;;;;;;;;5053849;28;32607;-69
2021/04/08 07:04:11;;;;;;;11.20;5.22;;;;;;;;;;5054475;28;32332;-69
2021/04/08 07:06:37;;;;;;;11.15;5.07;;;;;;;;;;5055933;28;31721;-69
2021/04/08 07:09:04;;;;;;;13.38;5.82;;;;;;;;;;5054035;28;32220;-69
2021/04/08 07:11:30;;;;;;;20.25;6.20;;;;;;;;;;5051858;28;30973;-69
2021/04/08 07:13:56;;;;;;;17.50;5.55;;;;;;;;;;5052996;28;33218;-69
2021/04/08 07:16:22;;;;;;;16.92;5.85;;;;;;;;;;5052481;28;31879;-69
2021/04/08 07:18:49;;;;;;;13.88;5.68;;;;;;;;;;5052386;28;31710;-70
2021/04/08 07:21:14;;;;;;;10.07;4.80;;;;;;;;;;5051816;28;33656;-69
2021/04/08 07:24:00;;;;;;;10.52;5.18;;;;;;;;;;5052623;28;32903;-69
2021/04/08 07:26:25;;;;;;;11.55;4.95;;;;;;;;;;5052143;28;32801;-69
2021/04/08 07:28:51;;;;;;;14.05;5.20;;;;;;;;;;5052032;28;32139;-69
2021/04/08 07:31:24;;;;;;;12.82;5.97;;;;;;;;;;5052393;28;33391;-69
2021/04/08 07:33:51;;;;;;;20.27;6.03;;;;;;;;;;5052766;28;32973;-69
2021/04/08 07:36:31;;;;;;;15.00;6.10;;;;;;;;;;5050273;28;32225;-70
2021/04/08 07:38:58;;;;;;;12.93;6.03;;;;;;;;;;5051196;28;20056;-69
2021/04/08 07:41:31;;;;;;;12.57;5.38;;;;;;;;;;5051558;28;32666;-69
2021/04/08 07:43:59;;;;;;;12.27;4.80;;;;;;;;;;5046931;28;32294;-70
2021/04/08 07:46:29;;;;;;;11.48;4.90;;;;;;;;;;5048532;28;31764;-70
2021/04/08 07:48:54;;;;;;;13.13;5.07;;;;;;;;;;5046308;28;32040;-69
2021/04/08 07:51:27;;;;;;;16.85;5.18;;;;;;;;;;5049540;28;32713;-70
2021/04/08 07:54:21;;;;;;;13.77;4.65;;;;;;;;;;5050224;28;32364;-69
2021/04/08 07:56:47;;;;;;;11.43;4.88;;;;;;;;;;5052869;28;30630;-71
2021/04/08 07:59:16;;;;;;;13.40;4.28;;;;;;;;;;5047727;28;32828;-70
2021/04/08 08:01:45;;;;;;;11.65;5.28;;;;;;;;;;5051198;28;32153;-69
2021/04/08 08:04:20;;;;;;;9.68;4.55;;;;;;;;;;5050508;28;32295;-73
2021/04/08 08:06:47;;;;;;;10.07;4.45;;;;;;;;;;5049776;28;32949;-69
2021/04/08 08:09:13;;;;;;;10.82;4.53;;;;;;;;;;5048811;28;36101;-70
2021/04/08 08:11:41;;;;;;;10.75;4.70;;;;;;;;;;5049496;28;32455;-71
2021/04/08 08:14:09;;;;;;;13.65;4.88;;;;;;;;;;5050065;28;32443;-70
2021/04/08 08:16:35;;;;;;;10.30;4.68;;;;;;;;;;5047711;28;31753;-70
2021/04/08 08:19:02;;;;;;;10.98;5.30;;;;;;;;;;5050319;28;31169;-70
2021/04/08 08:21:27;;;;;;;7.85;4.07;;;;;;;;;;5049234;28;32703;-70
2021/04/08 08:23:54;;;;;;;13.02;5.28;;;;;;;;;;5047029;28;30782;-70
2021/04/08 08:26:39;;;;;;;12.95;5.75;;;;;;;;;;5048667;28;31804;-71
2021/04/08 08:29:08;;;;;;;17.08;6.82;;;;;;;;;;5050365;28;32780;-71
2021/04/08 08:31:47;;;;;;;12.55;4.88;;;;;;;;;;5049991;28;32322;-72
2021/04/08 08:34:20;;;;;;;8.27;5.05;;;;;;;;;;5047137;28;30780;-71
2021/04/08 08:36:48;;;;;;;10.07;4.28;;;;;;;;;;5049449;28;42145;-70
2021/04/08 08:39:16;;;;;;;7.88;4.80;;;;;;;;;;5051098;28;32095;-71
2021/04/08 08:41:42;;;;;;;13.73;5.13;;;;;;;;;;5051087;28;32639;-71
2021/04/08 08:44:10;;;;;;;12.65;4.93;;;;;;;;;;5052527;28;32119;-70
2021/04/08 08:46:42;;;;;;;12.55;4.72;;;;;;;;;;5053522;28;32054;-72
2021/04/08 08:49:08;;;;;;;7.40;3.58;;;;;;;;;;5052283;28;32082;-72
2021/04/08 08:51:36;;;;;;;16.67;5.38;;;;;;;;;;5051356;28;33037;-72
2021/04/08 08:54:02;;;;;;;13.98;4.70;;;;;;;;;;5051393;28;31826;-72
2021/04/08 08:56:28;;;;;;;14.73;4.95;;;;;;;;;;5050489;28;31957;-72
2021/04/08 08:58:54;;;;;;;12.95;4.35;;;;;;;;;;5049720;28;32067;-72
2021/04/08 09:01:20;;;;;;;5.93;4.45;;;;;;;;;;5051733;28;32279;-72
2021/04/08 09:03:46;;;;;;;10.88;4.72;;;;;;;;;;5051775;28;32253;-71
2021/04/08 09:06:12;;;;;;;10.65;4.10;;;;;;;;;;5049969;28;30510;-71
2021/04/08 09:08:40;;;;;;;9.57;4.85;;;;;;;;;;5050321;28;31497;-71
2021/04/08 09:11:06;;;;;;;12.57;4.00;;;;;;;;;;5051451;28;32554;-71
2021/04/08 09:13:31;;;;;;;11.70;4.70;;;;;;;;;;5052078;28;34940;-73
2021/04/08 09:15:58;;;;;;;9.82;4.70;;;;;;;;;;5051538;28;33051;-71
2021/04/08 09:18:24;;;;;;;8.18;4.65;;;;;;;;;;5052165;28;31854;-71
2021/04/08 09:20:50;;;;;;;8.20;5.25;;;;;;;;;;5050555;28;32432;-70
2021/04/08 09:23:18;;;;;;;9.65;4.13;;;;;;;;;;5051135;28;33123;-70
2021/04/08 09:25:53;;;;;;;7.53;3.95;;;;;;;;;;5050197;28;31799;-71
2021/04/08 09:28:19;;;;;;;11.32;5.03;;;;;;;;;;5048042;28;31775;-70
2021/04/08 09:31:09;;;;;;;7.30;4.40;;;;;;;;;;5049058;28;34002;-71
2021/04/08 09:33:41;;;;;;;10.48;5.15;;;;;;;;;;5049990;28;31994;-71
2021/04/08 09:36:26;;;;;;;9.70;5.53;;;;;;;;;;5050091;28;31536;-71
2021/04/08 09:38:51;;;;;;;;;;;;;;;;;;5051976;28;31850;-70
2021/04/08 09:41:38;;;;;;;10.38;5.18;;;;;;;;;;5053763;28;31796;-71
2021/04/08 09:44:03;;;;;;;8.40;5.18;;;;;;;;;;5050232;28;32101;-72
2021/04/08 09:46:40;;;;;;;9.05;5.20;;;;;;;;;;5053973;28;32936;-71
2021/04/08 09:49:07;;;;;;;9.30;5.97;;;;;;;;;;5053666;28;32048;-71
2021/04/08 09:51:34;;;;;;;9.27;6.32;;;;;;;;;;5055665;28;33610;-72
2021/04/08 09:54:04;;;;;;;11.60;6.22;;;;;;;;;;5056150;28;32000;-73
2021/04/08 09:56:48;;;;;;;10.45;5.57;;;;;;;;;;5056398;28;32812;-72
2021/04/08 09:59:15;;;;;;;9.52;6.00;;;;;;;;;;5058856;28;33026;-73
2021/04/08 10:01:41;;;;;;;12.93;6.25;;;;;;;;;;5056831;28;32601;-73
2021/04/08 10:04:14;;;;;;;8.43;5.70;;;;;;;;;;5056684;28;33134;-73
2021/04/08 10:06:40;;;;;;;9.90;5.93;;;;;;;;;;5052202;28;31851;-73
2021/04/08 10:09:07;;;;;;;15.60;6.75;;;;;;;;;;5053324;28;32940;-73
2021/04/08 10:11:32;;;;;;;12.15;5.97;;;;;;;;;;5053516;28;32132;-73
2021/04/08 10:13:58;;;;;;;12.65;5.95;;;;;;;;;;5054002;28;32320;-73
2021/04/08 10:16:24;;;;;;;8.82;6.57;;;;;;;;;;5053670;28;31679;-73
2021/04/08 10:18:59;;;;;;;12.50;6.10;;;;;;;;;;5053986;28;32817;-72
2021/04/08 10:21:25;;;;;;;17.83;7.38;;;;;;;;;;5053875;28;33424;-73
2021/04/08 10:23:52;;;;;;;9.65;6.28;;;;;;;;;;5053198;28;31883;-73
2021/04/08 10:26:24;;;;;;;12.43;6.85;;;;;;;;;;5053491;28;31938;-73
2021/04/08 10:28:54;;;;;;;13.23;6.85;;;;;;;;;;5051704;28;31966;-72
2021/04/08 10:31:23;;;;;;;16.27;7.30;;;;;;;;;;5050537;28;31036;-72
2021/04/08 10:33:53;;;;;;;12.88;6.97;;;;;;;;;;5055106;28;31888;-72
2021/04/08 10:36:26;;;;;;;10.68;6.75;;;;;;;;;;5054319;28;31839;-72
2021/04/08 10:39:12;;;;;;;11.00;7.20;;;;;;;;;;5052844;28;32099;-75
2021/04/08 10:41:38;;;;;;;13.10;7.45;;;;;;;;;;5058558;28;32538;-72
2021/04/08 10:44:23;;;;;;;11.50;7.88;;;;;;;;;;5055381;28;31885;-74
2021/04/08 10:46:52;;;;;;;12.48;8.20;;;;;;;;;;5052673;28;32973;-73
2021/04/08 10:49:22;;;;;;;12.90;6.65;;;;;;;;;;5052046;28;31874;-72
2021/04/08 10:51:48;;;;;;;10.48;5.03;;;;;;;;;;5053020;28;33611;-72
2021/04/08 10:54:14;;;;;;;5.47;3.25;;;;;;;;;;5055006;28;31965;-72
2021/04/08 10:56:40;;;;;;;8.45;5.97;;;;;;;;;;5053088;28;31468;-73
2021/04/08 10:59:15;;;;;;;12.88;5.57;;;;;;;;;;5054115;28;31929;-72
2021/04/08 11:01:41;;;;;;;7.40;3.50;;;;;;;;;;5052927;28;32564;-72
2021/04/08 11:04:06;;;;;;;10.13;6.80;;;;;;;;;;5051784;28;30654;-72
2021/04/08 11:06:33;;;;;;;5.43;3.78;;;;;;;;;;5052036;28;31866;-73
2021/04/08 11:08:58;;;;;;;9.57;4.82;;;;;;;;;;5052119;28;32121;-73
2021/04/08 11:11:24;;;;;;;19.55;7.53;;;;;;;;;;5051440;28;33366;-73
2021/04/08 11:13:50;;;;;;;11.10;5.75;;;;;;;;;;5052223;28;32321;-74
2021/04/08 11:16:16;;;;;;;17.50;7.22;;;;;;;;;;5052883;28;31566;-73
2021/04/08 11:18:42;;;;;;;12.60;7.30;;;;;;;;;;5053727;28;31955;-73
2021/04/08 11:21:08;;;;;;;11.45;8.23;;;;;;;;;;5055143;28;33482;-73
2021/04/08 11:23:33;;;;;;;7.43;3.55;;;;;;;;;;5059523;28;33384;-72
2021/04/08 11:26:03;;;;;;;13.25;8.55;;;;;;;;;;5058386;28;31903;-73
2021/04/08 11:28:28;;;;;;;12.75;6.70;;;;;;;;;;5055768;28;31918;-72
2021/04/08 11:30:54;;;;;;;3.45;2.28;;;;;;;;;;5059027;28;30831;-72
2021/04/08 11:33:20;;;;;;;9.82;7.40;;;;;;;;;;5056844;28;32134;-73
2021/04/08 11:35:46;;;;;;;3.88;2.10;;;;;;;;;;5054892;28;30650;-73
2021/04/08 11:38:19;;;;;;;9.82;6.55;;;;;;;;;;5053184;28;32078;-73
2021/04/08 11:40:48;;;;;;;15.48;7.18;;;;;;;;;;5052374;28;32742;-72
2021/04/08 11:43:17;;;;;;;14.32;6.60;;;;;;;;;;5053355;28;33222;-73
2021/04/08 11:45:43;;;;;;;7.80;3.67;;;;;;;;;;5051093;28;32899;-73
2021/04/08 11:48:09;;;;;;;11.18;6.10;;;;;;;;;;5051028;28;32604;-72
2021/04/08 11:50:36;;;;;;;10.52;6.18;;;;;;;;;;5052961;28;33365;-73
2021/04/08 11:53:09;;;;;;;11.80;5.63;;;;;;;;;;5050232;28;33141;-72
2021/04/08 11:55:36;;;;;;;16.50;6.57;;;;;;;;;;5052398;28;31185;-71
2021/04/08 11:58:02;;;;;;;6.07;4.05;;;;;;;;;;5046291;28;30540;-73
2021/04/08 12:00:28;;;;;;;3.42;2.45;;;;;;;;;;5049050;28;32661;-71
2021/04/08 12:02:54;;;;;;;8.52;4.65;;;;;;;;;;5051549;28;32309;-72
2021/04/08 12:05:20;;;;;;;8.90;5.70;;;;;;;;;;5050397;28;31635;-73
2021/04/08 12:07:48;;;;;;;15.10;6.80;;;;;;;;;;5052934;28;32083;-72
2021/04/08 12:10:27;;;;;;;7.90;5.60;;;;;;;;;;5050880;28;32620;-72
2021/04/08 12:12:53;;;;;;;11.10;7.43;;;;;;;;;;5050405;28;32840;-71
2021/04/08 12:15:30;;;;;;;11.52;6.13;;;;;;;;;;5052488;28;32040;-73
2021/04/08 12:17:56;;;;;;;15.48;6.80;;;;;;;;;;5052513;28;32107;-72
2021/04/08 12:20:21;;;;;;;9.45;5.07;;;;;;;;;;5050707;28;32534;-72
2021/04/08 12:22:47;;;;;;;8.60;7.28;;;;;;;;;;5052142;28;33212;-74
2021/04/08 12:25:14;;;;;;;10.32;6.50;;;;;;;;;;5051060;28;32939;-72
2021/04/08 12:27:40;;;;;;;12.95;6.97;;;;;;;;;;5053036;28;32921;-72
2021/04/08 12:30:07;;;;;;;15.35;6.80;;;;;;;;;;5050069;28;31387;-73
2021/04/08 12:32:33;;;;;;;10.95;7.15;;;;;;;;;;5052554;28;33151;-72
2021/04/08 12:34:58;;;;;;;7.05;4.00;;;;;;;;;;5051893;28;31277;-71
2021/04/08 12:37:25;;;;;;;14.55;7.40;;;;;;;;;;5052780;28;31235;-73
2021/04/08 12:39:51;;;;;;;13.68;7.78;;;;;;;;;;5049738;28;32474;-72
2021/04/08 12:42:17;;;;;;;10.73;7.35;;;;;;;;;;5052536;28;32297;-72
2021/04/08 12:44:43;;;;;;;13.77;7.05;;;;;;;;;;5055725;28;31929;-72
2021/04/08 12:47:10;;;;;;;6.47;4.53;;;;;;;;;;5051207;28;31917;-73
2021/04/08 12:49:35;;;;;;;16.13;7.90;;;;;;;;;;5052305;28;34966;-73
2021/04/08 12:52:01;;;;;;;15.18;8.70;;;;;;;;;;5052344;28;32189;-73
2021/04/08 12:54:30;;;;;;;6.68;4.15;;;;;;;;;;5052770;28;31882;-73
2021/04/08 12:56:55;;;;;;;13.65;7.22;;;;;;;;;;5051397;28;32087;-71
2021/04/08 12:59:21;;;;;;;11.35;6.75;;;;;;;;;;5051857;28;32582;-71
2021/04/08 13:01:47;;;;;;;13.60;7.05;;;;;;;;;;5051818;28;33161;-71
2021/04/08 13:04:12;;;;;;;12.55;8.15;;;;;;;;;;5051559;28;31982;-71
2021/04/08 13:06:38;;;;;;;16.27;7.55;;;;;;;;;;5050870;28;32684;-71
2021/04/08 13:09:04;;;;;;;12.27;8.60;;;;;;;;;;5051301;28;32216;-72
2021/04/08 13:11:29;;;;;;;4.10;2.00;;;;;;;;;;5051014;28;31775;-74
2021/04/08 13:13:55;;;;;;;14.45;7.22;;;;;;;;;;5050914;28;31924;-71
2021/04/08 13:16:21;;;;;;;8.48;4.57;;;;;;;;;;5051649;28;32126;-71
2021/04/08 13:18:46;;;;;;;18.27;7.75;;;;;;;;;;5050663;28;32879;-70
2021/04/08 13:21:12;;;;;;;16.25;7.85;;;;;;;;;;5052603;28;31873;-73
2021/04/08 13:23:38;;;;;;;8.02;4.90;;;;;;;;;;5054714;28;31612;-72
2021/04/08 13:26:03;;;;;;;9.02;4.47;;;;;;;;;;5055317;28;32276;-72
2021/04/08 13:28:29;;;;;;;8.20;5.20;;;;;;;;;;5054264;28;32618;-74
2021/04/08 13:30:55;;;;;;;14.35;8.25;;;;;;;;;;5057083;28;31850;-70
2021/04/08 13:33:20;;;;;;;13.32;7.18;;;;;;;;;;5050078;28;32347;-71
2021/04/08 13:35:46;;;;;;;11.90;6.25;;;;;;;;;;5053666;28;32083;-73
2021/04/08 13:38:12;;;;;;;15.00;7.25;;;;;;;;;;5055556;28;33933;-75
2021/04/08 13:40:38;;;;;;;6.68;3.38;;;;;;;;;;5052769;28;31974;-73
2021/04/08 13:43:04;;;;;;;3.63;1.80;;;;;;;;;;5052680;28;32839;-73
2021/04/08 13:45:29;;;;;;;13.05;6.60;;;;;;;;;;5053951;28;31066;-72
2021/04/08 13:47:55;;;;;;;13.02;7.18;;;;;;;;;;5055139;28;33615;-74
2021/04/08 13:50:21;;;;;;;11.57;6.78;;;;;;;;;;5055095;28;32342;-73
2021/04/08 13:52:47;;;;;;;12.45;7.20;;;;;;;;;;5053969;28;31631;-74
2021/04/08 13:55:15;;;;;;;14.48;8.20;;;;;;;;;;5052381;28;30468;-73
2021/04/08 13:57:41;;;;;;;17.77;7.72;;;;;;;;;;5051797;28;31049;-72
2021/04/08 14:00:14;;;;;;;16.58;7.65;;;;;;;;;;5052895;28;32150;-73
2021/04/08 14:02:40;;;;;;;11.95;6.03;;;;;;;;;;5050686;28;32587;-74
2021/04/08 14:05:07;;;;;;;7.70;3.60;;;;;;;;;;5052727;28;31992;-70
2021/04/08 14:07:33;;;;;;;7.57;5.38;;;;;;;;;;5051572;28;32124;-71
2021/04/08 14:09:59;;;;;;;16.17;8.00;;;;;;;;;;5050850;28;32505;-72
2021/04/08 14:12:24;;;;;;;10.98;7.68;;;;;;;;;;5052071;28;31756;-72
2021/04/08 14:14:50;;;;;;;18.63;8.13;;;;;;;;;;5053245;28;32120;-72
2021/04/08 14:17:16;;;;;;;8.82;4.32;;;;;;;;;;5051223;28;33114;-71
2021/04/08 14:19:41;;;;;;;11.60;6.78;;;;;;;;;;5050411;28;32240;-71
2021/04/08 14:22:07;;;;;;;15.93;8.32;;;;;;;;;;5053971;28;32015;-73
2021/04/08 14:24:32;;;;;;;14.30;6.78;;;;;;;;;;5051650;28;32520;-73
2021/04/08 14:26:59;;;;;;;11.13;7.22;;;;;;;;;;5049766;28;32366;-72
2021/04/08 14:29:25;;;;;;;7.65;4.78;;;;;;;;;;5052799;28;32907;-73
2021/04/08 14:31:51;;;;;;;15.68;8.05;;;;;;;;;;5052509;28;32052;-72
2021/04/08 14:34:17;;;;;;;11.45;7.78;;;;;;;;;;5053729;28;32100;-73
2021/04/08 14:36:42;;;;;;;14.07;5.05;;;;;;;;;;5052835;28;32524;-74